sensor_id;sensor_type;location;lat;lon;timestamp;P1;durP1;ratioP1;P2;durP2;ratioP2
22737;SDS011;11536;50.860;4.286;2023-07-22T00:00:42;9.32;;;4.07;;
22737;SDS011;11536;50.860;4.286;2023-07-22T00:03:07;10.10;;;4.20;;
22737;SDS011;11536;50.860;4.286;2023-07-22T00:05:33;10.00;;;4.45;;
22737;SDS011;11536;50.860;4.286;2023-07-22T00:07:59;11.60;;;4.80;;
22737;SDS011;11536;50.860;4.286;2023-07-22T00:10:24;10.85;;;4.50;;
22737;SDS011;11536;50.860;4.286;2023-07-22T00:12:50;9.48;;;4.50;;
22737;SDS011;11536;50.860;4.286;2023-07-22T00:15:16;10.80;;;5.07;;
22737;SDS011;11536;50.860;4.286;2023-07-22T00:17:41;10.50;;;4.63;;
22737;SDS011;11536;50.860;4.286;2023-07-22T00:20:08;12.43;;;5.40;;
22737;SDS011;11536;50.860;4.286;2023-07-22T00:22:36;11.20;;;4.78;;
22737;SDS011;11536;50.860;4.286;2023-07-22T00:25:06;10.30;;;5.05;;
22737;SDS011;11536;50.860;4.286;2023-07-22T00:27:35;10.82;;;4.93;;
22737;SDS011;11536;50.860;4.286;2023-07-22T00:30:01;9.45;;;4.28;;
22737;SDS011;11536;50.860;4.286;2023-07-22T00:32:26;9.95;;;4.50;;
22737;SDS011;11536;50.860;4.286;2023-07-22T00:34:52;10.82;;;4.90;;
22737;SDS011;11536;50.860;4.286;2023-07-22T00:37:17;11.10;;;4.75;;
22737;SDS011;11536;50.860;4.286;2023-07-22T00:39:43;9.73;;;4.40;;
22737;SDS011;11536;50.860;4.286;2023-07-22T00:42:08;11.20;;;5.20;;
22737;SDS011;11536;50.860;4.286;2023-07-22T00:44:35;9.27;;;4.88;;
22737;SDS011;11536;50.860;4.286;2023-07-22T00:47:02;11.10;;;4.80;;
22737;SDS011;11536;50.860;4.286;2023-07-22T00:49:28;12.18;;;5.03;;
22737;SDS011;11536;50.860;4.286;2023-07-22T00:51:55;11.95;;;5.35;;
22737;SDS011;11536;50.860;4.286;2023-07-22T00:54:25;11.65;;;4.70;;
22737;SDS011;11536;50.860;4.286;2023-07-22T00:56:50;11.02;;;5.00;;
22737;SDS011;11536;50.860;4.286;2023-07-22T00:59:17;11.75;;;5.03;;
22737;SDS011;11536;50.860;4.286;2023-07-22T01:01:42;17.15;;;5.10;;
22737;SDS011;11536;50.860;4.286;2023-07-22T01:04:08;10.98;;;5.00;;
22737;SDS011;11536;50.860;4.286;2023-07-22T01:06:34;10.82;;;4.65;;
22737;SDS011;11536;50.860;4.286;2023-07-22T01:09:00;10.05;;;5.05;;
22737;SDS011;11536;50.860;4.286;2023-07-22T01:11:41;13.10;;;5.35;;
22737;SDS011;11536;50.860;4.286;2023-07-22T01:14:07;12.88;;;5.00;;
22737;SDS011;11536;50.860;4.286;2023-07-22T01:16:33;13.20;;;5.78;;
22737;SDS011;11536;50.860;4.286;2023-07-22T01:18:59;13.07;;;5.68;;
22737;SDS011;11536;50.860;4.286;2023-07-22T01:21:25;11.07;;;5.35;;
22737;SDS011;11536;50.860;4.286;2023-07-22T01:23:52;10.65;;;4.90;;
22737;SDS011;11536;50.860;4.286;2023-07-22T01:26:19;11.07;;;5.15;;
22737;SDS011;11536;50.860;4.286;2023-07-22T01:28:45;12.57;;;4.68;;
22737;SDS011;11536;50.860;4.286;2023-07-22T01:31:10;11.25;;;4.85;;
22737;SDS011;11536;50.860;4.286;2023-07-22T01:33:36;9.82;;;4.95;;
22737;SDS011;11536;50.860;4.286;2023-07-22T01:36:03;14.57;;;5.82;;
22737;SDS011;11536;50.860;4.286;2023-07-22T01:38:30;12.43;;;5.47;;
22737;SDS011;11536;50.860;4.286;2023-07-22T01:40:56;11.93;;;4.93;;
22737;SDS011;11536;50.860;4.286;2023-07-22T01:43:24;12.45;;;4.80;;
22737;SDS011;11536;50.860;4.286;2023-07-22T01:45:50;15.07;;;4.68;;
22737;SDS011;11536;50.860;4.286;2023-07-22T01:48:15;14.18;;;5.40;;
22737;SDS011;11536;50.860;4.286;2023-07-22T01:50:41;13.82;;;5.47;;
22737;SDS011;11536;50.860;4.286;2023-07-22T01:53:07;11.02;;;4.97;;
22737;SDS011;11536;50.860;4.286;2023-07-22T01:55:33;11.00;;;5.25;;
22737;SDS011;11536;50.860;4.286;2023-07-22T01:57:58;12.02;;;5.20;;
22737;SDS011;11536;50.860;4.286;2023-07-22T02:00:25;11.85;;;5.00;;
22737;SDS011;11536;50.860;4.286;2023-07-22T02:02:51;12.10;;;5.57;;
22737;SDS011;11536;50.860;4.286;2023-07-22T02:05:17;10.52;;;5.07;;
22737;SDS011;11536;50.860;4.286;2023-07-22T02:07:43;13.98;;;5.85;;
22737;SDS011;11536;50.860;4.286;2023-07-22T02:10:08;12.65;;;5.00;;
22737;SDS011;11536;50.860;4.286;2023-07-22T02:12:35;11.25;;;4.90;;
22737;SDS011;11536;50.860;4.286;2023-07-22T02:15:01;11.93;;;4.97;;
22737;SDS011;11536;50.860;4.286;2023-07-22T02:17:27;10.63;;;4.95;;
22737;SDS011;11536;50.860;4.286;2023-07-22T02:19:53;12.60;;;4.80;;
22737;SDS011;11536;50.860;4.286;2023-07-22T02:22:19;10.38;;;4.68;;
22737;SDS011;11536;50.860;4.286;2023-07-22T02:24:45;11.57;;;4.60;;
22737;SDS011;11536;50.860;4.286;2023-07-22T02:27:11;11.23;;;5.63;;
22737;SDS011;11536;50.860;4.286;2023-07-22T02:29:37;13.88;;;4.65;;
22737;SDS011;11536;50.860;4.286;2023-07-22T02:32:03;13.50;;;5.35;;
22737;SDS011;11536;50.860;4.286;2023-07-22T02:34:29;10.70;;;4.53;;
22737;SDS011;11536;50.860;4.286;2023-07-22T02:36:55;12.57;;;4.57;;
22737;SDS011;11536;50.860;4.286;2023-07-22T02:39:21;11.60;;;5.20;;
22737;SDS011;11536;50.860;4.286;2023-07-22T02:41:47;13.15;;;5.20;;
22737;SDS011;11536;50.860;4.286;2023-07-22T02:44:13;9.43;;;4.80;;
22737;SDS011;11536;50.860;4.286;2023-07-22T02:46:39;14.02;;;5.38;;
22737;SDS011;11536;50.860;4.286;2023-07-22T02:49:04;12.82;;;5.63;;
22737;SDS011;11536;50.860;4.286;2023-07-22T02:51:30;11.38;;;4.93;;
22737;SDS011;11536;50.860;4.286;2023-07-22T02:53:59;11.50;;;5.35;;
22737;SDS011;11536;50.860;4.286;2023-07-22T02:56:25;14.10;;;5.93;;
22737;SDS011;11536;50.860;4.286;2023-07-22T02:58:52;13.07;;;4.95;;
22737;SDS011;11536;50.860;4.286;2023-07-22T03:01:18;12.05;;;5.63;;
22737;SDS011;11536;50.860;4.286;2023-07-22T03:03:44;12.48;;;5.40;;
22737;SDS011;11536;50.860;4.286;2023-07-22T03:06:09;14.40;;;5.57;;
22737;SDS011;11536;50.860;4.286;2023-07-22T03:08:35;13.50;;;5.82;;
22737;SDS011;11536;50.860;4.286;2023-07-22T03:11:01;12.90;;;5.38;;
22737;SDS011;11536;50.860;4.286;2023-07-22T03:13:27;13.35;;;6.07;;
22737;SDS011;11536;50.860;4.286;2023-07-22T03:15:56;13.10;;;5.63;;
22737;SDS011;11536;50.860;4.286;2023-07-22T03:18:22;13.40;;;5.40;;
22737;SDS011;11536;50.860;4.286;2023-07-22T03:20:48;14.43;;;5.60;;
22737;SDS011;11536;50.860;4.286;2023-07-22T03:23:14;14.85;;;5.82;;
22737;SDS011;11536;50.860;4.286;2023-07-22T03:25:39;15.30;;;6.07;;
22737;SDS011;11536;50.860;4.286;2023-07-22T03:28:06;13.18;;;5.95;;
22737;SDS011;11536;50.860;4.286;2023-07-22T03:30:32;14.50;;;6.07;;
22737;SDS011;11536;50.860;4.286;2023-07-22T03:32:59;13.73;;;6.10;;
22737;SDS011;11536;50.860;4.286;2023-07-22T03:35:25;16.02;;;6.45;;
22737;SDS011;11536;50.860;4.286;2023-07-22T03:37:51;16.33;;;6.63;;
22737;SDS011;11536;50.860;4.286;2023-07-22T03:40:17;15.05;;;6.63;;
22737;SDS011;11536;50.860;4.286;2023-07-22T03:42:48;14.50;;;6.07;;
22737;SDS011;11536;50.860;4.286;2023-07-22T03:45:15;14.63;;;6.15;;
22737;SDS011;11536;50.860;4.286;2023-07-22T03:47:43;19.92;;;6.53;;
22737;SDS011;11536;50.860;4.286;2023-07-22T03:50:10;14.75;;;6.15;;
22737;SDS011;11536;50.860;4.286;2023-07-22T03:52:35;13.75;;;6.05;;
22737;SDS011;11536;50.860;4.286;2023-07-22T03:55:01;16.23;;;6.75;;
22737;SDS011;11536;50.860;4.286;2023-07-22T03:57:27;13.15;;;6.40;;
22737;SDS011;11536;50.860;4.286;2023-07-22T03:59:54;15.07;;;6.40;;
22737;SDS011;11536;50.860;4.286;2023-07-22T04:02:20;14.65;;;5.95;;
22737;SDS011;11536;50.860;4.286;2023-07-22T04:04:47;16.30;;;6.25;;
22737;SDS011;11536;50.860;4.286;2023-07-22T04:07:12;15.60;;;6.35;;
22737;SDS011;11536;50.860;4.286;2023-07-22T04:09:40;15.43;;;6.40;;
22737;SDS011;11536;50.860;4.286;2023-07-22T04:12:06;12.88;;;5.72;;
22737;SDS011;11536;50.860;4.286;2023-07-22T04:14:32;15.57;;;5.90;;
22737;SDS011;11536;50.860;4.286;2023-07-22T04:16:58;13.65;;;6.10;;
22737;SDS011;11536;50.860;4.286;2023-07-22T04:19:27;14.88;;;6.43;;
22737;SDS011;11536;50.860;4.286;2023-07-22T04:21:52;14.43;;;5.28;;
22737;SDS011;11536;50.860;4.286;2023-07-22T04:24:20;15.63;;;5.80;;
22737;SDS011;11536;50.860;4.286;2023-07-22T04:26:45;13.75;;;6.45;;
22737;SDS011;11536;50.860;4.286;2023-07-22T04:29:11;14.15;;;6.20;;
22737;SDS011;11536;50.860;4.286;2023-07-22T04:31:37;16.42;;;5.85;;
22737;SDS011;11536;50.860;4.286;2023-07-22T04:34:03;15.60;;;6.88;;
22737;SDS011;11536;50.860;4.286;2023-07-22T04:36:30;15.88;;;6.18;;
22737;SDS011;11536;50.860;4.286;2023-07-22T04:38:56;17.05;;;7.60;;
22737;SDS011;11536;50.860;4.286;2023-07-22T04:41:22;14.63;;;5.90;;
22737;SDS011;11536;50.860;4.286;2023-07-22T04:43:47;13.35;;;5.70;;
22737;SDS011;11536;50.860;4.286;2023-07-22T04:46:13;16.67;;;5.63;;
22737;SDS011;11536;50.860;4.286;2023-07-22T04:48:39;17.40;;;6.50;;
22737;SDS011;11536;50.860;4.286;2023-07-22T04:51:04;16.50;;;6.13;;
22737;SDS011;11536;50.860;4.286;2023-07-22T04:53:30;15.68;;;6.70;;
22737;SDS011;11536;50.860;4.286;2023-07-22T04:55:55;15.93;;;6.22;;
22737;SDS011;11536;50.860;4.286;2023-07-22T04:58:21;14.35;;;6.10;;
22737;SDS011;11536;50.860;4.286;2023-07-22T05:00:47;13.80;;;5.95;;
22737;SDS011;11536;50.860;4.286;2023-07-22T05:03:16;14.40;;;5.50;;
22737;SDS011;11536;50.860;4.286;2023-07-22T05:05:43;14.05;;;6.15;;
22737;SDS011;11536;50.860;4.286;2023-07-22T05:08:09;14.60;;;6.35;;
22737;SDS011;11536;50.860;4.286;2023-07-22T05:10:36;17.13;;;6.00;;
22737;SDS011;11536;50.860;4.286;2023-07-22T05:13:02;14.13;;;5.60;;
22737;SDS011;11536;50.860;4.286;2023-07-22T05:15:27;11.70;;;4.93;;
22737;SDS011;11536;50.860;4.286;2023-07-22T05:17:53;13.50;;;5.18;;
22737;SDS011;11536;50.860;4.286;2023-07-22T05:20:19;11.20;;;4.78;;
22737;SDS011;11536;50.860;4.286;2023-07-22T05:22:44;14.93;;;5.57;;
22737;SDS011;11536;50.860;4.286;2023-07-22T05:25:10;14.90;;;5.95;;
22737;SDS011;11536;50.860;4.286;2023-07-22T05:27:36;13.75;;;5.68;;
22737;SDS011;11536;50.860;4.286;2023-07-22T05:30:02;15.35;;;5.57;;
22737;SDS011;11536;50.860;4.286;2023-07-22T05:32:28;15.50;;;5.50;;
22737;SDS011;11536;50.860;4.286;2023-07-22T05:34:57;14.98;;;5.25;;
22737;SDS011;11536;50.860;4.286;2023-07-22T05:37:23;13.32;;;5.38;;
22737;SDS011;11536;50.860;4.286;2023-07-22T05:39:51;13.80;;;5.53;;
22737;SDS011;11536;50.860;4.286;2023-07-22T05:42:17;16.88;;;5.88;;
22737;SDS011;11536;50.860;4.286;2023-07-22T05:44:43;11.73;;;4.85;;
22737;SDS011;11536;50.860;4.286;2023-07-22T05:47:10;11.60;;;5.22;;
22737;SDS011;11536;50.860;4.286;2023-07-22T05:49:38;14.10;;;6.03;;
22737;SDS011;11536;50.860;4.286;2023-07-22T05:52:03;12.05;;;5.07;;
22737;SDS011;11536;50.860;4.286;2023-07-22T05:54:29;11.95;;;4.95;;
22737;SDS011;11536;50.860;4.286;2023-07-22T05:56:55;13.65;;;4.53;;
22737;SDS011;11536;50.860;4.286;2023-07-22T05:59:21;12.15;;;4.75;;
22737;SDS011;11536;50.860;4.286;2023-07-22T06:01:46;12.15;;;4.45;;
22737;SDS011;11536;50.860;4.286;2023-07-22T06:04:12;13.05;;;5.22;;
22737;SDS011;11536;50.860;4.286;2023-07-22T06:06:38;11.50;;;4.50;;
22737;SDS011;11536;50.860;4.286;2023-07-22T06:09:03;14.38;;;4.68;;
22737;SDS011;11536;50.860;4.286;2023-07-22T06:11:29;10.48;;;4.13;;
22737;SDS011;11536;50.860;4.286;2023-07-22T06:13:55;10.88;;;4.60;;
22737;SDS011;11536;50.860;4.286;2023-07-22T06:16:21;13.10;;;4.90;;
22737;SDS011;11536;50.860;4.286;2023-07-22T06:18:47;10.70;;;4.38;;
22737;SDS011;11536;50.860;4.286;2023-07-22T06:21:13;13.40;;;5.00;;
22737;SDS011;11536;50.860;4.286;2023-07-22T06:23:38;11.90;;;4.40;;
22737;SDS011;11536;50.860;4.286;2023-07-22T06:26:04;13.32;;;4.90;;
22737;SDS011;11536;50.860;4.286;2023-07-22T06:28:30;11.90;;;4.55;;
22737;SDS011;11536;50.860;4.286;2023-07-22T06:30:55;13.52;;;4.68;;
22737;SDS011;11536;50.860;4.286;2023-07-22T06:33:22;10.93;;;4.15;;
22737;SDS011;11536;50.860;4.286;2023-07-22T06:35:47;10.25;;;4.43;;
22737;SDS011;11536;50.860;4.286;2023-07-22T06:38:13;10.73;;;4.22;;
22737;SDS011;11536;50.860;4.286;2023-07-22T06:40:38;11.02;;;4.13;;
22737;SDS011;11536;50.860;4.286;2023-07-22T06:43:04;11.43;;;4.53;;
22737;SDS011;11536;50.860;4.286;2023-07-22T06:45:31;9.48;;;4.07;;
22737;SDS011;11536;50.860;4.286;2023-07-22T06:47:58;9.48;;;3.90;;
22737;SDS011;11536;50.860;4.286;2023-07-22T06:50:24;11.45;;;4.18;;
22737;SDS011;11536;50.860;4.286;2023-07-22T06:52:50;10.10;;;4.03;;
22737;SDS011;11536;50.860;4.286;2023-07-22T06:55:15;9.23;;;3.95;;
22737;SDS011;11536;50.860;4.286;2023-07-22T06:57:41;12.93;;;4.95;;
22737;SDS011;11536;50.860;4.286;2023-07-22T07:00:07;10.63;;;4.18;;
22737;SDS011;11536;50.860;4.286;2023-07-22T07:02:35;11.73;;;4.13;;
22737;SDS011;11536;50.860;4.286;2023-07-22T07:05:01;11.65;;;4.45;;
22737;SDS011;11536;50.860;4.286;2023-07-22T07:07:26;11.55;;;4.20;;
22737;SDS011;11536;50.860;4.286;2023-07-22T07:09:52;9.23;;;4.25;;
22737;SDS011;11536;50.860;4.286;2023-07-22T07:12:18;9.25;;;4.05;;
22737;SDS011;11536;50.860;4.286;2023-07-22T07:14:43;10.48;;;3.95;;
22737;SDS011;11536;50.860;4.286;2023-07-22T07:17:09;9.75;;;3.88;;
22737;SDS011;11536;50.860;4.286;2023-07-22T07:19:35;14.88;;;4.63;;
22737;SDS011;11536;50.860;4.286;2023-07-22T07:22:00;10.65;;;4.43;;
22737;SDS011;11536;50.860;4.286;2023-07-22T07:24:26;9.20;;;3.70;;
22737;SDS011;11536;50.860;4.286;2023-07-22T07:26:52;11.05;;;3.85;;
22737;SDS011;11536;50.860;4.286;2023-07-22T07:29:18;9.88;;;3.55;;
22737;SDS011;11536;50.860;4.286;2023-07-22T07:31:43;9.10;;;3.85;;
22737;SDS011;11536;50.860;4.286;2023-07-22T07:34:09;10.38;;;3.50;;
22737;SDS011;11536;50.860;4.286;2023-07-22T07:36:34;9.88;;;3.40;;
22737;SDS011;11536;50.860;4.286;2023-07-22T07:39:00;9.40;;;3.75;;
22737;SDS011;11536;50.860;4.286;2023-07-22T07:41:26;9.05;;;3.60;;
22737;SDS011;11536;50.860;4.286;2023-07-22T07:43:53;8.57;;;3.45;;
22737;SDS011;11536;50.860;4.286;2023-07-22T07:46:23;9.98;;;3.72;;
22737;SDS011;11536;50.860;4.286;2023-07-22T07:48:54;8.15;;;3.10;;
22737;SDS011;11536;50.860;4.286;2023-07-22T07:53:51;9.45;;;3.15;;
22737;SDS011;11536;50.860;4.286;2023-07-22T07:56:18;10.63;;;3.60;;
22737;SDS011;11536;50.860;4.286;2023-07-22T07:58:45;9.43;;;2.95;;
22737;SDS011;11536;50.860;4.286;2023-07-22T08:01:13;8.98;;;2.78;;
22737;SDS011;11536;50.860;4.286;2023-07-22T08:03:39;10.95;;;3.05;;
22737;SDS011;11536;50.860;4.286;2023-07-22T08:06:09;10.43;;;2.88;;
22737;SDS011;11536;50.860;4.286;2023-07-22T08:08:36;12.38;;;3.00;;
22737;SDS011;11536;50.860;4.286;2023-07-22T08:11:03;8.32;;;3.10;;
22737;SDS011;11536;50.860;4.286;2023-07-22T08:13:33;7.97;;;2.70;;
22737;SDS011;11536;50.860;4.286;2023-07-22T08:16:00;7.68;;;2.92;;
22737;SDS011;11536;50.860;4.286;2023-07-22T08:18:30;6.20;;;2.28;;
22737;SDS011;11536;50.860;4.286;2023-07-22T08:20:56;6.78;;;2.47;;
22737;SDS011;11536;50.860;4.286;2023-07-22T08:23:22;6.05;;;1.90;;
22737;SDS011;11536;50.860;4.286;2023-07-22T08:25:48;7.93;;;2.33;;
22737;SDS011;11536;50.860;4.286;2023-07-22T08:28:14;6.70;;;2.03;;
22737;SDS011;11536;50.860;4.286;2023-07-22T08:30:41;7.78;;;2.50;;
22737;SDS011;11536;50.860;4.286;2023-07-22T08:33:08;6.10;;;1.75;;
22737;SDS011;11536;50.860;4.286;2023-07-22T08:35:35;11.32;;;2.60;;
22737;SDS011;11536;50.860;4.286;2023-07-22T08:38:03;4.90;;;2.15;;
22737;SDS011;11536;50.860;4.286;2023-07-22T08:40:33;6.22;;;1.98;;
22737;SDS011;11536;50.860;4.286;2023-07-22T08:42:59;8.38;;;2.20;;
22737;SDS011;11536;50.860;4.286;2023-07-22T08:45:27;4.97;;;1.83;;
22737;SDS011;11536;50.860;4.286;2023-07-22T08:47:56;8.85;;;2.10;;
22737;SDS011;11536;50.860;4.286;2023-07-22T08:50:26;7.53;;;2.25;;
22737;SDS011;11536;50.860;4.286;2023-07-22T08:52:55;5.10;;;1.95;;
22737;SDS011;11536;50.860;4.286;2023-07-22T08:55:23;4.95;;;2.10;;
22737;SDS011;11536;50.860;4.286;2023-07-22T08:57:49;5.13;;;1.90;;
22737;SDS011;11536;50.860;4.286;2023-07-22T09:00:16;6.63;;;2.15;;
22737;SDS011;11536;50.860;4.286;2023-07-22T09:02:43;5.35;;;1.90;;
22737;SDS011;11536;50.860;4.286;2023-07-22T09:05:09;3.75;;;1.67;;
22737;SDS011;11536;50.860;4.286;2023-07-22T09:07:35;7.13;;;1.80;;
22737;SDS011;11536;50.860;4.286;2023-07-22T09:10:03;8.07;;;1.80;;
22737;SDS011;11536;50.860;4.286;2023-07-22T09:12:30;4.45;;;1.70;;
22737;SDS011;11536;50.860;4.286;2023-07-22T09:14:56;5.85;;;1.73;;
22737;SDS011;11536;50.860;4.286;2023-07-22T09:17:22;5.35;;;1.38;;
22737;SDS011;11536;50.860;4.286;2023-07-22T09:19:51;7.32;;;1.35;;
22737;SDS011;11536;50.860;4.286;2023-07-22T09:22:18;4.82;;;1.55;;
22737;SDS011;11536;50.860;4.286;2023-07-22T09:24:50;6.10;;;1.40;;
22737;SDS011;11536;50.860;4.286;2023-07-22T09:27:20;4.50;;;1.10;;
22737;SDS011;11536;50.860;4.286;2023-07-22T09:29:59;6.00;;;1.45;;
22737;SDS011;11536;50.860;4.286;2023-07-22T09:32:37;4.65;;;1.25;;
22737;SDS011;11536;50.860;4.286;2023-07-22T09:35:02;5.15;;;1.40;;
22737;SDS011;11536;50.860;4.286;2023-07-22T09:37:36;2.88;;;1.02;;
22737;SDS011;11536;50.860;4.286;2023-07-22T09:40:10;4.72;;;1.10;;
22737;SDS011;11536;50.860;4.286;2023-07-22T09:42:44;2.80;;;1.30;;
22737;SDS011;11536;50.860;4.286;2023-07-22T09:45:17;5.13;;;1.25;;
22737;SDS011;11536;50.860;4.286;2023-07-22T09:47:45;4.15;;;0.98;;
22737;SDS011;11536;50.860;4.286;2023-07-22T09:50:16;6.03;;;1.15;;
22737;SDS011;11536;50.860;4.286;2023-07-22T09:52:47;2.55;;;0.90;;
22737;SDS011;11536;50.860;4.286;2023-07-22T09:55:23;3.25;;;0.90;;
22737;SDS011;11536;50.860;4.286;2023-07-22T09:57:52;5.70;;;1.08;;
22737;SDS011;11536;50.860;4.286;2023-07-22T10:00:19;3.47;;;1.08;;
22737;SDS011;11536;50.860;4.286;2023-07-22T10:02:48;2.53;;;1.05;;
22737;SDS011;11536;50.860;4.286;2023-07-22T10:05:15;3.47;;;1.30;;
22737;SDS011;11536;50.860;4.286;2023-07-22T10:07:43;4.78;;;1.10;;
22737;SDS011;11536;50.860;4.286;2023-07-22T10:10:17;3.97;;;1.05;;
22737;SDS011;11536;50.860;4.286;2023-07-22T10:12:56;2.90;;;0.95;;
22737;SDS011;11536;50.860;4.286;2023-07-22T10:15:23;4.25;;;1.05;;
22737;SDS011;11536;50.860;4.286;2023-07-22T10:17:51;4.45;;;0.93;;
22737;SDS011;11536;50.860;4.286;2023-07-22T10:20:20;1.40;;;0.60;;
22737;SDS011;11536;50.860;4.286;2023-07-22T10:22:49;4.22;;;0.88;;
22737;SDS011;11536;50.860;4.286;2023-07-22T10:25:16;1.90;;;0.63;;
22737;SDS011;11536;50.860;4.286;2023-07-22T10:27:43;1.85;;;0.70;;
22737;SDS011;11536;50.860;4.286;2023-07-22T10:30:11;3.08;;;0.90;;
22737;SDS011;11536;50.860;4.286;2023-07-22T10:32:39;2.22;;;0.70;;
22737;SDS011;11536;50.860;4.286;2023-07-22T10:35:09;3.97;;;0.93;;
22737;SDS011;11536;50.860;4.286;2023-07-22T10:37:55;3.65;;;1.00;;
22737;SDS011;11536;50.860;4.286;2023-07-22T10:40:31;2.28;;;0.90;;
22737;SDS011;11536;50.860;4.286;2023-07-22T10:43:03;3.17;;;0.82;;
22737;SDS011;11536;50.860;4.286;2023-07-22T10:45:32;2.70;;;0.93;;
22737;SDS011;11536;50.860;4.286;2023-07-22T10:50:40;2.78;;;0.90;;
22737;SDS011;11536;50.860;4.286;2023-07-22T10:53:12;3.53;;;1.15;;
22737;SDS011;11536;50.860;4.286;2023-07-22T11:11:55;4.45;;;1.17;;
22737;SDS011;11536;50.860;4.286;2023-07-22T11:14:23;4.00;;;1.40;;
22737;SDS011;11536;50.860;4.286;2023-07-22T11:16:49;2.90;;;0.75;;
22737;SDS011;11536;50.860;4.286;2023-07-22T11:19:16;3.70;;;1.15;;
22737;SDS011;11536;50.860;4.286;2023-07-22T11:21:43;4.13;;;1.10;;
22737;SDS011;11536;50.860;4.286;2023-07-22T11:24:09;3.22;;;1.23;;
22737;SDS011;11536;50.860;4.286;2023-07-22T11:26:35;4.13;;;1.08;;
22737;SDS011;11536;50.860;4.286;2023-07-22T11:29:02;3.13;;;1.15;;
22737;SDS011;11536;50.860;4.286;2023-07-22T11:31:38;4.28;;;1.10;;
22737;SDS011;11536;50.860;4.286;2023-07-22T11:34:09;2.65;;;0.93;;
22737;SDS011;11536;50.860;4.286;2023-07-22T11:36:35;3.10;;;1.10;;
22737;SDS011;11536;50.860;4.286;2023-07-22T11:39:08;3.10;;;1.00;;
22737;SDS011;11536;50.860;4.286;2023-07-22T11:44:03;4.55;;;1.10;;
22737;SDS011;11536;50.860;4.286;2023-07-22T11:49:32;4.18;;;1.10;;
22737;SDS011;11536;50.860;4.286;2023-07-22T11:51:58;3.78;;;1.15;;
22737;SDS011;11536;50.860;4.286;2023-07-22T11:54:26;3.10;;;1.08;;
22737;SDS011;11536;50.860;4.286;2023-07-22T11:56:56;1.80;;;0.90;;
22737;SDS011;11536;50.860;4.286;2023-07-22T11:59:39;3.63;;;1.02;;
22737;SDS011;11536;50.860;4.286;2023-07-22T12:02:12;3.08;;;1.00;;
22737;SDS011;11536;50.860;4.286;2023-07-22T12:04:38;3.88;;;1.00;;
22737;SDS011;11536;50.860;4.286;2023-07-22T12:07:05;3.10;;;0.90;;
22737;SDS011;11536;50.860;4.286;2023-07-22T12:09:31;2.55;;;1.00;;
22737;SDS011;11536;50.860;4.286;2023-07-22T12:11:57;2.40;;;0.93;;
22737;SDS011;11536;50.860;4.286;2023-07-22T12:14:24;4.38;;;1.00;;
22737;SDS011;11536;50.860;4.286;2023-07-22T12:16:57;3.45;;;1.10;;
22737;SDS011;11536;50.860;4.286;2023-07-22T12:19:23;4.60;;;1.00;;
22737;SDS011;11536;50.860;4.286;2023-07-22T12:21:48;3.65;;;0.90;;
22737;SDS011;11536;50.860;4.286;2023-07-22T12:24:14;2.60;;;0.93;;
22737;SDS011;11536;50.860;4.286;2023-07-22T12:26:40;3.15;;;0.70;;
22737;SDS011;11536;50.860;4.286;2023-07-22T12:29:07;3.20;;;1.00;;
22737;SDS011;11536;50.860;4.286;2023-07-22T12:31:33;2.55;;;0.82;;
22737;SDS011;11536;50.860;4.286;2023-07-22T12:33:59;3.95;;;0.80;;
22737;SDS011;11536;50.860;4.286;2023-07-22T12:36:25;4.50;;;1.20;;
22737;SDS011;11536;50.860;4.286;2023-07-22T12:38:51;4.05;;;1.08;;
22737;SDS011;11536;50.860;4.286;2023-07-22T12:41:16;2.15;;;0.73;;
22737;SDS011;11536;50.860;4.286;2023-07-22T12:43:42;2.45;;;0.80;;
22737;SDS011;11536;50.860;4.286;2023-07-22T12:46:08;3.40;;;1.00;;
22737;SDS011;11536;50.860;4.286;2023-07-22T12:48:33;3.45;;;1.20;;
22737;SDS011;11536;50.860;4.286;2023-07-22T12:50:59;3.97;;;1.08;;
22737;SDS011;11536;50.860;4.286;2023-07-22T12:53:25;4.45;;;1.10;;
22737;SDS011;11536;50.860;4.286;2023-07-22T12:55:51;2.40;;;0.93;;
22737;SDS011;11536;50.860;4.286;2023-07-22T12:58:17;4.30;;;1.00;;
22737;SDS011;11536;50.860;4.286;2023-07-22T13:00:42;3.85;;;1.10;;
22737;SDS011;11536;50.860;4.286;2023-07-22T13:03:08;3.63;;;0.80;;
22737;SDS011;11536;50.860;4.286;2023-07-22T13:05:34;2.00;;;0.70;;
22737;SDS011;11536;50.860;4.286;2023-07-22T13:07:59;3.60;;;1.10;;
22737;SDS011;11536;50.860;4.286;2023-07-22T13:10:26;2.60;;;1.00;;
22737;SDS011;11536;50.860;4.286;2023-07-22T13:12:53;5.32;;;1.13;;
22737;SDS011;11536;50.860;4.286;2023-07-22T13:15:19;4.15;;;0.98;;
22737;SDS011;11536;50.860;4.286;2023-07-22T13:17:45;3.47;;;1.35;;
22737;SDS011;11536;50.860;4.286;2023-07-22T13:20:11;2.88;;;1.10;;
22737;SDS011;11536;50.860;4.286;2023-07-22T13:22:40;3.63;;;1.10;;
22737;SDS011;11536;50.860;4.286;2023-07-22T13:25:06;3.25;;;1.15;;
22737;SDS011;11536;50.860;4.286;2023-07-22T13:27:34;2.55;;;1.02;;
22737;SDS011;11536;50.860;4.286;2023-07-22T13:29:59;4.50;;;0.90;;
22737;SDS011;11536;50.860;4.286;2023-07-22T13:32:26;4.93;;;1.08;;
22737;SDS011;11536;50.860;4.286;2023-07-22T13:34:52;4.00;;;1.20;;
22737;SDS011;11536;50.860;4.286;2023-07-22T13:37:17;3.97;;;1.10;;
22737;SDS011;11536;50.860;4.286;2023-07-22T13:39:43;2.78;;;0.80;;
22737;SDS011;11536;50.860;4.286;2023-07-22T13:42:09;3.22;;;1.10;;
22737;SDS011;11536;50.860;4.286;2023-07-22T13:44:35;3.45;;;1.08;;
22737;SDS011;11536;50.860;4.286;2023-07-22T13:47:00;3.63;;;0.70;;
22737;SDS011;11536;50.860;4.286;2023-07-22T13:49:26;3.67;;;1.05;;
22737;SDS011;11536;50.860;4.286;2023-07-22T13:51:51;2.78;;;1.20;;
22737;SDS011;11536;50.860;4.286;2023-07-22T13:54:17;2.92;;;1.20;;
22737;SDS011;11536;50.860;4.286;2023-07-22T13:56:44;3.65;;;1.00;;
22737;SDS011;11536;50.860;4.286;2023-07-22T13:59:12;5.22;;;1.27;;
22737;SDS011;11536;50.860;4.286;2023-07-22T14:01:38;2.83;;;0.90;;
22737;SDS011;11536;50.860;4.286;2023-07-22T14:04:04;3.88;;;1.00;;
22737;SDS011;11536;50.860;4.286;2023-07-22T14:06:29;3.75;;;0.90;;
22737;SDS011;11536;50.860;4.286;2023-07-22T14:08:55;3.05;;;1.00;;
22737;SDS011;11536;50.860;4.286;2023-07-22T14:11:20;3.00;;;0.80;;
22737;SDS011;11536;50.860;4.286;2023-07-22T14:13:46;2.42;;;0.90;;
22737;SDS011;11536;50.860;4.286;2023-07-22T14:16:11;2.63;;;0.90;;
22737;SDS011;11536;50.860;4.286;2023-07-22T14:18:37;3.45;;;0.82;;
22737;SDS011;11536;50.860;4.286;2023-07-22T14:21:02;3.50;;;0.90;;
22737;SDS011;11536;50.860;4.286;2023-07-22T14:23:28;3.45;;;0.90;;
22737;SDS011;11536;50.860;4.286;2023-07-22T14:25:54;2.33;;;0.90;;
22737;SDS011;11536;50.860;4.286;2023-07-22T14:28:19;3.33;;;1.10;;
22737;SDS011;11536;50.860;4.286;2023-07-22T14:30:45;3.90;;;0.90;;
22737;SDS011;11536;50.860;4.286;2023-07-22T14:33:10;4.53;;;1.08;;
22737;SDS011;11536;50.860;4.286;2023-07-22T14:35:37;2.60;;;0.85;;
22737;SDS011;11536;50.860;4.286;2023-07-22T14:38:02;3.88;;;0.82;;
22737;SDS011;11536;50.860;4.286;2023-07-22T14:40:28;3.95;;;1.00;;
22737;SDS011;11536;50.860;4.286;2023-07-22T14:42:54;3.78;;;1.10;;
22737;SDS011;11536;50.860;4.286;2023-07-22T14:45:20;3.45;;;1.17;;
22737;SDS011;11536;50.860;4.286;2023-07-22T14:47:45;2.92;;;1.15;;
22737;SDS011;11536;50.860;4.286;2023-07-22T14:50:12;3.65;;;1.00;;
22737;SDS011;11536;50.860;4.286;2023-07-22T14:52:39;3.85;;;1.00;;
22737;SDS011;11536;50.860;4.286;2023-07-22T14:55:05;2.97;;;1.00;;
22737;SDS011;11536;50.860;4.286;2023-07-22T14:57:31;2.63;;;0.95;;
22737;SDS011;11536;50.860;4.286;2023-07-22T14:59:56;4.85;;;0.90;;
22737;SDS011;11536;50.860;4.286;2023-07-22T15:02:22;5.47;;;1.13;;
22737;SDS011;11536;50.860;4.286;2023-07-22T15:04:48;3.33;;;1.10;;